createdAt,value
2023-02-26T00:00:15.252Z,58.98
2023-02-26T00:02:43.073Z,58.95
2023-02-26T00:05:10.321Z,59.08
2023-02-26T00:07:37.791Z,59.01
2023-02-26T00:10:10.111Z,59.16
2023-02-26T00:12:37.694Z,59.16
2023-02-26T00:15:05.908Z,59.28
2023-02-26T00:17:41.551Z,59.43
2023-02-26T00:20:09.279Z,59.49
2023-02-26T00:22:36.323Z,59.31
2023-02-26T00:25:02.987Z,59.59
2023-02-26T00:27:30.045Z,59.38
2023-02-26T00:29:57.108Z,59.57
2023-02-26T00:32:24.139Z,59.75
2023-02-26T00:34:51.380Z,59.73
2023-02-26T00:37:26.147Z,59.79
2023-02-26T00:40:01.374Z,60.00
2023-02-26T00:42:28.296Z,59.91
2023-02-26T00:44:55.209Z,59.89
2023-02-26T00:47:52.079Z,59.91
2023-02-26T00:50:21.155Z,59.95
2023-02-26T00:53:00.193Z,59.96
2023-02-26T00:55:28.436Z,60.04
2023-02-26T00:57:55.708Z,60.16
2023-02-26T01:00:23.625Z,60.12
2023-02-26T01:02:51.084Z,60.04
2023-02-26T01:05:19.806Z,60.37
2023-02-26T01:08:12.687Z,60.17
2023-02-26T01:10:40.041Z,60.34
2023-02-26T01:13:07.360Z,60.28
2023-02-26T01:15:34.402Z,60.40
2023-02-26T01:18:14.059Z,60.20
2023-02-26T01:20:47.865Z,60.39
2023-02-26T01:23:18.659Z,60.55
2023-02-26T01:25:58.852Z,60.54
2023-02-26T01:28:26.814Z,60.49
2023-02-26T01:30:59.537Z,60.44
2023-02-26T01:33:30.032Z,60.62
2023-02-26T01:36:16.100Z,60.71
2023-02-26T01:38:52.864Z,60.52
2023-02-26T01:41:43.786Z,60.56
2023-02-26T01:44:31.681Z,60.63
2023-02-26T01:47:10.674Z,60.77
2023-02-26T01:49:38.514Z,60.73
2023-02-26T01:52:07.536Z,60.79
2023-02-26T01:54:38.678Z,60.86
2023-02-26T01:57:11.097Z,60.87
2023-02-26T01:59:42.430Z,60.79
2023-02-26T02:02:11.878Z,60.80
2023-02-26T02:04:39.669Z,61.08
2023-02-26T02:07:06.586Z,60.83
2023-02-26T02:09:33.874Z,61.06
2023-02-26T02:12:31.313Z,61.07
2023-02-26T02:15:30.912Z,60.92
2023-02-26T02:18:31.526Z,61.20
2023-02-26T02:21:07.307Z,61.07
2023-02-26T02:23:47.542Z,61.25
2023-02-26T02:26:20.187Z,61.30
2023-02-26T02:29:08.386Z,61.21
2023-02-26T02:31:43.870Z,61.30
2023-02-26T02:34:19.516Z,61.32
2023-02-26T02:37:01.306Z,61.23
2023-02-26T02:40:12.937Z,61.13
2023-02-26T02:42:46.400Z,61.43
2023-02-26T02:45:47.725Z,61.33
2023-02-26T02:48:22.355Z,61.42
2023-02-26T02:50:55.654Z,61.51
2023-02-26T02:53:49.740Z,61.23
2023-02-26T02:56:46.875Z,61.31
2023-02-26T02:59:32.087Z,61.58
2023-02-26T03:02:07.678Z,61.29
2023-02-26T03:04:34.886Z,61.59
2023-02-26T03:07:04.313Z,61.63
2023-02-26T03:09:31.056Z,61.61
2023-02-26T03:11:57.754Z,61.41
2023-02-26T03:14:26.255Z,61.53
2023-02-26T03:17:10.658Z,61.45
2023-02-26T03:20:09.085Z,61.61
2023-02-26T03:23:03.595Z,61.46
2023-02-26T03:25:33.329Z,61.47
2023-02-26T03:28:10.177Z,61.46
2023-02-26T03:30:55.249Z,61.47
2023-02-26T03:33:41.149Z,61.45
2023-02-26T03:36:28.742Z,61.52
2023-02-26T03:39:34.493Z,61.28
2023-02-26T03:42:12.736Z,61.32
2023-02-26T03:45:16.763Z,61.35
2023-02-26T03:47:48.806Z,61.50
2023-02-26T03:50:20.235Z,61.45
2023-02-26T03:52:54.725Z,61.36
2023-02-26T03:55:55.726Z,61.34
2023-02-26T03:58:40.860Z,61.53
2023-02-26T04:01:45.692Z,61.40
2023-02-26T04:04:23.929Z,61.26
2023-02-26T04:06:53.644Z,61.34
2023-02-26T04:09:21.495Z,61.38
2023-02-26T04:11:51.387Z,61.44
2023-02-26T04:14:18.880Z,61.33
2023-02-26T04:16:46.375Z,61.27
2023-02-26T04:19:14.257Z,61.38
2023-02-26T04:21:42.477Z,61.35
2023-02-26T04:24:11.347Z,61.47
2023-02-26T04:26:38.070Z,61.38
2023-02-26T04:29:04.849Z,61.40
2023-02-26T04:31:31.948Z,61.37
2023-02-26T04:34:02.515Z,61.69
2023-02-26T04:36:29.460Z,61.52
2023-02-26T04:38:58.351Z,61.51
2023-02-26T04:41:24.980Z,61.40
2023-02-26T04:43:51.977Z,61.46
2023-02-26T04:46:26.158Z,61.54
2023-02-26T04:48:53.794Z,61.58
2023-02-26T04:51:20.704Z,61.71
2023-02-26T04:53:50.282Z,61.52
2023-02-26T04:56:17.151Z,61.62
2023-02-26T04:58:45.221Z,61.65
2023-02-26T05:01:17.448Z,61.61
2023-02-26T05:03:44.243Z,61.66
2023-02-26T05:06:11.307Z,61.73
2023-02-26T05:08:42.196Z,61.53
2023-02-26T05:11:10.589Z,61.76
2023-02-26T05:13:37.366Z,61.81
2023-02-26T05:16:04.534Z,61.66
2023-02-26T05:18:32.493Z,61.65
2023-02-26T05:20:59.855Z,61.77
2023-02-26T05:23:27.268Z,61.62
2023-02-26T05:25:57.852Z,61.79
2023-02-26T05:28:25.744Z,61.66
2023-02-26T05:30:52.869Z,61.70
2023-02-26T05:33:20.826Z,61.78
2023-02-26T05:35:48.224Z,61.77
2023-02-26T05:38:15.160Z,61.81
2023-02-26T05:40:41.875Z,61.83
2023-02-26T05:43:09.055Z,61.50
2023-02-26T05:45:36.115Z,61.79
2023-02-26T05:48:03.116Z,61.76
2023-02-26T05:50:30.575Z,61.79
2023-02-26T05:52:58.022Z,61.63
2023-02-26T05:55:25.021Z,61.73
2023-02-26T05:57:51.708Z,61.78
2023-02-26T06:00:18.863Z,61.81
2023-02-26T06:02:46.015Z,61.88
2023-02-26T06:05:12.813Z,61.74
2023-02-26T06:07:39.556Z,61.71
2023-02-26T06:10:09.210Z,61.93
2023-02-26T06:12:36.601Z,61.82
2023-02-26T06:15:04.922Z,61.78
2023-02-26T06:17:31.746Z,62.01
2023-02-26T06:19:58.655Z,61.88
2023-02-26T06:22:25.551Z,61.66
2023-02-26T06:24:52.257Z,61.88
2023-02-26T06:27:18.967Z,61.72
2023-02-26T06:29:45.659Z,61.85
2023-02-26T06:32:12.508Z,62.00
2023-02-26T06:34:39.485Z,61.93
2023-02-26T06:37:06.445Z,61.92
2023-02-26T06:39:33.217Z,62.09
2023-02-26T06:41:59.953Z,61.94
2023-02-26T06:44:26.764Z,61.97
2023-02-26T06:46:53.482Z,61.96
2023-02-26T06:49:20.296Z,61.71
2023-02-26T06:51:46.957Z,61.72
2023-02-26T06:54:13.692Z,62.04
2023-02-26T06:56:40.324Z,61.91
2023-02-26T06:59:06.904Z,61.83
2023-02-26T07:01:33.837Z,61.79
2023-02-26T07:04:00.656Z,61.81
2023-02-26T07:06:28.248Z,61.58
2023-02-26T07:08:55.832Z,61.68
2023-02-26T07:11:22.672Z,61.71
2023-02-26T07:13:51.487Z,61.69
2023-02-26T07:16:18.643Z,61.54
2023-02-26T07:18:45.445Z,61.61
2023-02-26T07:21:12.234Z,61.69
2023-02-26T07:23:38.990Z,61.71
2023-02-26T07:26:05.616Z,61.75
2023-02-26T07:28:32.206Z,61.74
2023-02-26T07:30:59.172Z,61.71
2023-02-26T07:33:28.419Z,61.72
2023-02-26T07:35:55.361Z,61.80
2023-02-26T07:38:22.066Z,61.55
2023-02-26T07:40:49.151Z,61.64
2023-02-26T07:43:15.843Z,61.71
2023-02-26T07:45:42.669Z,61.58
2023-02-26T07:48:09.399Z,61.53
2023-02-26T07:50:36.162Z,61.74
2023-02-26T07:53:03.282Z,61.51
2023-02-26T07:55:30.232Z,61.62
2023-02-26T07:57:56.990Z,61.44
2023-02-26T08:00:23.846Z,61.61
2023-02-26T08:02:50.638Z,61.78
2023-02-26T08:05:17.549Z,61.58
2023-02-26T08:07:44.250Z,61.48
2023-02-26T08:10:11.968Z,61.63
2023-02-26T08:12:38.838Z,61.54
2023-02-26T08:15:06.486Z,61.63
2023-02-26T08:17:33.235Z,61.52
2023-02-26T08:20:00.012Z,61.54
2023-02-26T08:22:27.023Z,61.30
2023-02-26T08:24:53.848Z,61.34
2023-02-26T08:27:20.456Z,61.77
2023-02-26T08:29:47.227Z,60.25
2023-02-26T08:32:15.744Z,59.47
2023-02-26T08:34:42.743Z,58.44
2023-02-26T08:37:11.735Z,58.57
2023-02-26T08:39:39.402Z,57.38
2023-02-26T08:42:07.321Z,57.28
2023-02-26T08:44:34.389Z,57.09
2023-02-26T08:47:01.275Z,56.33
2023-02-26T08:49:28.038Z,55.66
2023-02-26T08:51:54.697Z,56.00
2023-02-26T08:54:21.362Z,55.22
2023-02-26T08:56:48.167Z,54.88
2023-02-26T08:59:15.212Z,55.84
2023-02-26T09:01:41.942Z,56.64
2023-02-26T09:04:08.815Z,56.72
2023-02-26T09:06:35.817Z,56.75
2023-02-26T09:09:02.626Z,56.88
2023-02-26T09:11:30.806Z,56.85
2023-02-26T09:13:59.093Z,56.35
2023-02-26T09:16:27.103Z,56.48
2023-02-26T09:18:56.150Z,56.12
2023-02-26T09:21:23.406Z,55.81
2023-02-26T09:23:50.308Z,55.69
2023-02-26T09:26:17.153Z,55.29
2023-02-26T09:28:43.979Z,55.03
2023-02-26T09:31:10.740Z,54.90
2023-02-26T09:33:37.464Z,54.98
2023-02-26T09:36:04.696Z,54.80
2023-02-26T09:38:31.403Z,54.87
2023-02-26T09:41:01.352Z,54.91
2023-02-26T09:43:37.015Z,54.91
2023-02-26T09:46:11.553Z,54.78
2023-02-26T09:48:39.700Z,54.55
2023-02-26T09:51:12.751Z,54.77
2023-02-26T09:53:41.316Z,54.81
2023-02-26T09:56:21.639Z,54.61
2023-02-26T09:58:49.497Z,54.69
2023-02-26T10:01:45.119Z,54.70
2023-02-26T10:04:20.591Z,54.71
2023-02-26T10:06:59.324Z,54.78
2023-02-26T10:09:53.361Z,54.80
2023-02-26T10:12:24.679Z,54.72
2023-02-26T10:15:00.584Z,54.43
2023-02-26T10:17:46.313Z,54.41
2023-02-26T10:20:21.946Z,54.20
2023-02-26T10:23:22.240Z,54.20
2023-02-26T10:26:05.131Z,54.07
2023-02-26T10:28:55.761Z,54.19
2023-02-26T10:31:30.764Z,54.20
2023-02-26T10:34:07.346Z,53.78
2023-02-26T10:36:53.498Z,53.69
2023-02-26T10:39:35.397Z,53.73
2023-02-26T10:42:17.379Z,53.33
2023-02-26T10:45:09.903Z,53.75
2023-02-26T10:48:09.239Z,53.53
2023-02-26T10:50:36.163Z,53.47
2023-02-26T10:53:04.146Z,53.41
2023-02-26T10:55:47.238Z,53.56
2023-02-26T10:58:20.887Z,53.43
2023-02-26T11:00:50.943Z,53.20
2023-02-26T11:03:34.403Z,52.95
2023-02-26T11:06:03.911Z,53.05
2023-02-26T11:08:46.111Z,53.29
2023-02-26T11:11:45.680Z,53.09
2023-02-26T11:14:14.180Z,53.28
2023-02-26T11:16:50.355Z,53.27
2023-02-26T11:19:20.147Z,52.89
2023-02-26T11:21:47.958Z,53.00
2023-02-26T11:24:26.724Z,52.52
2023-02-26T11:26:55.419Z,52.39
2023-02-26T11:29:24.854Z,52.16
2023-02-26T11:31:52.591Z,51.97
2023-02-26T11:34:23.898Z,51.86
2023-02-26T11:36:53.185Z,51.91
2023-02-26T11:39:24.379Z,52.60
2023-02-26T11:41:55.830Z,52.81
2023-02-26T11:44:37.363Z,52.74
2023-02-26T11:47:26.803Z,52.44
2023-02-26T11:49:55.035Z,52.38
2023-02-26T11:52:42.150Z,51.97
2023-02-26T11:55:27.591Z,51.89
2023-02-26T11:57:56.105Z,52.13
2023-02-26T12:00:35.456Z,52.21
2023-02-26T12:03:08.399Z,51.98
2023-02-26T12:05:36.672Z,52.04
2023-02-26T12:08:14.223Z,51.99
2023-02-26T12:11:09.265Z,52.09
2023-02-26T12:13:57.323Z,52.27
2023-02-26T12:16:27.663Z,52.30
2023-02-26T12:19:17.625Z,52.14
2023-02-26T12:22:07.067Z,52.50
2023-02-26T12:24:42.218Z,52.41
2023-02-26T12:27:14.310Z,52.23
2023-02-26T12:30:01.334Z,52.29
2023-02-26T12:32:28.245Z,52.01
2023-02-26T12:35:12.490Z,52.04
2023-02-26T12:37:48.780Z,52.01
2023-02-26T12:40:37.274Z,52.07
2023-02-26T12:43:36.309Z,52.24
2023-02-26T12:46:08.604Z,52.25
2023-02-26T12:48:59.915Z,52.34
2023-02-26T12:51:47.271Z,52.12
2023-02-26T12:54:47.410Z,52.02
2023-02-26T12:57:32.791Z,52.07
2023-02-26T13:00:12.790Z,51.57
2023-02-26T13:02:51.383Z,51.73
2023-02-26T13:05:42.730Z,51.69
2023-02-26T13:08:22.365Z,51.30
2023-02-26T13:11:07.411Z,51.56
2023-02-26T13:13:52.586Z,51.50
2023-02-26T13:16:40.853Z,51.52
2023-02-26T13:19:26.438Z,51.33
2023-02-26T13:22:16.158Z,51.54
2023-02-26T13:24:48.816Z,50.95
2023-02-26T13:27:17.399Z,50.95
2023-02-26T13:29:53.153Z,50.86
2023-02-26T13:32:25.099Z,50.68
2023-02-26T13:34:58.689Z,50.82
2023-02-26T13:37:35.307Z,50.78
2023-02-26T13:40:21.646Z,50.78
2023-02-26T13:43:00.600Z,51.07
2023-02-26T13:46:04.059Z,50.83
2023-02-26T13:48:46.017Z,50.83
2023-02-26T13:51:35.018Z,50.85
2023-02-26T13:54:08.940Z,50.97
2023-02-26T13:56:35.816Z,50.93
2023-02-26T13:59:03.921Z,50.98
2023-02-26T14:01:50.607Z,50.89
2023-02-26T14:04:22.277Z,51.12
2023-02-26T14:06:59.208Z,51.32
2023-02-26T14:09:28.864Z,51.20
2023-02-26T14:11:55.414Z,51.25
2023-02-26T14:14:22.271Z,51.33
2023-02-26T14:16:53.605Z,51.19
2023-02-26T14:19:26.320Z,51.21
2023-02-26T14:22:00.710Z,51.11
2023-02-26T14:24:38.514Z,50.95
2023-02-26T14:27:11.142Z,50.98
2023-02-26T14:30:10.090Z,51.05
2023-02-26T14:32:48.782Z,51.21
2023-02-26T14:35:35.911Z,50.88
2023-02-26T14:38:07.900Z,51.04
2023-02-26T14:41:13.241Z,50.90
2023-02-26T14:43:41.488Z,50.63
2023-02-26T14:46:10.354Z,51.09
2023-02-26T14:48:38.307Z,50.78
2023-02-26T14:51:26.993Z,50.79
2023-02-26T14:54:00.228Z,50.61
2023-02-26T15:03:03.282Z,50.46
2023-02-26T15:05:38.778Z,50.46
2023-02-26T15:20:42.325Z,50.70
2023-02-26T15:23:43.479Z,50.41
2023-02-26T15:26:21.101Z,50.71
2023-02-26T15:28:49.191Z,50.65
2023-02-26T15:31:19.144Z,50.67
2023-02-26T15:33:49.545Z,50.56
2023-02-26T15:36:21.722Z,50.58
2023-02-26T15:38:53.602Z,50.27
2023-02-26T15:41:23.490Z,50.39
2023-02-26T15:43:55.661Z,50.50
2023-02-26T15:46:37.903Z,50.66
2023-02-26T15:49:15.788Z,50.78
2023-02-26T15:51:44.963Z,50.78
2023-02-26T15:54:17.864Z,50.66
2023-02-26T15:56:44.704Z,50.57
2023-02-26T15:59:17.209Z,50.58
2023-02-26T16:01:45.207Z,50.76
2023-02-26T16:04:15.757Z,50.68
2023-02-26T16:06:54.367Z,50.47
2023-02-26T16:09:30.943Z,50.66
2023-02-26T16:12:07.883Z,50.76
2023-02-26T16:14:38.626Z,50.56
2023-02-26T16:17:08.054Z,50.59
2023-02-26T16:19:41.864Z,50.84
2023-02-26T16:22:19.534Z,50.53
2023-02-26T16:24:53.581Z,50.46
2023-02-26T16:27:21.206Z,50.61
2023-02-26T16:29:52.897Z,50.50
2023-02-26T16:32:20.303Z,50.42
2023-02-26T16:34:53.396Z,50.24
2023-02-26T16:37:34.403Z,50.45
2023-02-26T16:40:21.063Z,50.12
2023-02-26T16:42:50.766Z,50.41
2023-02-26T16:45:49.430Z,50.19
2023-02-26T16:48:22.226Z,50.25
2023-02-26T16:51:06.295Z,50.33
2023-02-26T16:53:36.668Z,50.48
2023-02-26T16:56:04.950Z,50.06
2023-02-26T16:58:32.938Z,50.36
2023-02-26T17:01:08.896Z,50.31
2023-02-26T17:03:37.879Z,50.44
2023-02-26T17:06:16.610Z,50.24
2023-02-26T17:08:46.489Z,50.13
2023-02-26T17:11:48.856Z,50.16
2023-02-26T17:14:22.551Z,50.09
2023-02-26T17:16:50.467Z,50.18
2023-02-26T17:19:18.305Z,50.14
2023-02-26T17:21:54.175Z,50.37
2023-02-26T17:24:26.747Z,50.19
2023-02-26T17:27:12.141Z,50.00
2023-02-26T17:29:43.985Z,50.13
2023-02-26T17:32:38.575Z,49.85
2023-02-26T17:35:06.293Z,49.95
2023-02-26T17:37:35.149Z,49.87
2023-02-26T17:40:03.872Z,49.60
2023-02-26T17:42:30.553Z,49.71
2023-02-26T17:44:57.481Z,49.95
2023-02-26T17:47:26.272Z,50.10
2023-02-26T17:49:54.168Z,49.95
2023-02-26T17:52:21.111Z,49.94
2023-02-26T17:54:48.076Z,50.21
2023-02-26T17:57:17.650Z,50.15
2023-02-26T17:59:44.564Z,50.22
2023-02-26T18:02:23.251Z,50.31
2023-02-26T18:04:50.028Z,50.57
2023-02-26T18:07:18.043Z,50.57
2023-02-26T18:09:46.415Z,50.35
2023-02-26T18:12:23.139Z,50.49
2023-02-26T18:14:50.325Z,50.48
2023-02-26T18:17:25.261Z,50.68
2023-02-26T18:19:52.110Z,50.63
2023-02-26T18:22:24.052Z,50.73
2023-02-26T18:24:51.614Z,50.81
2023-02-26T18:27:26.213Z,50.90
2023-02-26T18:29:54.035Z,50.83
2023-02-26T18:32:23.826Z,50.68
2023-02-26T18:34:51.240Z,50.94
2023-02-26T18:37:22.300Z,50.88
2023-02-26T18:39:49.156Z,50.98
2023-02-26T18:42:24.800Z,51.07
2023-02-26T18:44:52.955Z,51.04
2023-02-26T18:47:21.443Z,50.87
2023-02-26T18:49:50.040Z,51.20
2023-02-26T18:52:17.026Z,50.80
2023-02-26T18:54:43.730Z,51.04
2023-02-26T18:57:10.684Z,50.91
2023-02-26T18:59:37.406Z,50.84
2023-02-26T19:02:06.064Z,51.05
2023-02-26T19:04:33.851Z,50.95
2023-02-26T19:07:00.767Z,51.06
2023-02-26T19:09:28.848Z,51.04
2023-02-26T19:11:58.632Z,51.09
2023-02-26T19:14:25.727Z,51.02
2023-02-26T19:16:52.628Z,50.68
2023-02-26T19:19:19.392Z,50.95
2023-02-26T19:21:46.190Z,51.07
2023-02-26T19:24:13.926Z,51.19
2023-02-26T19:26:42.090Z,51.07
2023-02-26T19:29:11.627Z,50.98
2023-02-26T19:31:38.326Z,51.14
2023-02-26T19:34:05.170Z,51.13
2023-02-26T19:36:33.675Z,51.28
2023-02-26T19:39:01.677Z,50.95
2023-02-26T19:41:28.712Z,51.24
2023-02-26T19:43:55.970Z,51.09
2023-02-26T19:46:23.247Z,51.30
2023-02-26T19:48:50.776Z,51.17
2023-02-26T19:51:18.736Z,50.99
2023-02-26T19:53:45.375Z,50.98
2023-02-26T19:56:12.612Z,51.22
2023-02-26T19:58:39.472Z,51.00
2023-02-26T20:01:06.768Z,51.29
2023-02-26T20:03:33.688Z,51.20
2023-02-26T20:06:00.923Z,51.48
2023-02-26T20:08:29.583Z,51.10
2023-02-26T20:10:58.886Z,51.41
2023-02-26T20:13:29.834Z,51.64
2023-02-26T20:16:00.830Z,51.66
2023-02-26T20:18:30.805Z,51.29
2023-02-26T20:20:59.892Z,51.31
2023-02-26T20:23:27.200Z,51.49
2023-02-26T20:25:58.211Z,51.36
2023-02-26T20:28:25.663Z,51.31
2023-02-26T20:30:53.048Z,51.62
2023-02-26T20:33:21.103Z,51.65
2023-02-26T20:35:48.216Z,51.28
2023-02-26T20:38:17.683Z,51.37
2023-02-26T20:40:46.206Z,51.59
2023-02-26T20:43:13.938Z,51.65
2023-02-26T20:45:41.914Z,51.52
2023-02-26T20:48:09.988Z,51.23
2023-02-26T20:50:37.331Z,51.80
2023-02-26T20:53:05.284Z,51.62
2023-02-26T20:55:32.222Z,51.70
2023-02-26T20:57:58.995Z,51.52
2023-02-26T21:00:26.058Z,51.52
2023-02-26T21:02:52.750Z,51.56
2023-02-26T21:05:19.840Z,51.60
2023-02-26T21:07:46.799Z,52.67
2023-02-26T21:10:16.570Z,52.33
2023-02-26T21:12:44.021Z,52.55
2023-02-26T21:15:12.303Z,52.91
2023-02-26T21:17:41.256Z,52.49
2023-02-26T21:20:10.289Z,52.60
2023-02-26T21:22:36.970Z,52.85
2023-02-26T21:25:08.365Z,53.21
2023-02-26T21:27:36.651Z,53.49
2023-02-26T21:30:08.080Z,53.63
2023-02-26T21:32:35.272Z,53.91
2023-02-26T21:35:02.137Z,53.89
2023-02-26T21:37:29.375Z,53.86
2023-02-26T21:39:56.431Z,54.15
2023-02-26T21:42:23.646Z,54.32
2023-02-26T21:44:50.455Z,54.26
2023-02-26T21:47:17.191Z,54.16
2023-02-26T21:49:44.092Z,54.54
2023-02-26T21:52:12.248Z,54.51
2023-02-26T21:54:39.288Z,54.59
2023-02-26T21:57:06.181Z,54.72
2023-02-26T21:59:33.635Z,54.86
2023-02-26T22:02:00.594Z,54.84
2023-02-26T22:04:27.525Z,54.98
2023-02-26T22:06:54.263Z,55.02
2023-02-26T22:09:21.388Z,55.17
2023-02-26T22:11:48.227Z,55.00
2023-02-26T22:14:15.692Z,55.21
2023-02-26T22:16:42.346Z,55.22
2023-02-26T22:19:09.157Z,55.39
2023-02-26T22:21:35.820Z,55.55
2023-02-26T22:24:03.803Z,55.72
2023-02-26T22:26:30.928Z,55.69
2023-02-26T22:29:00.130Z,55.85
2023-02-26T22:31:31.903Z,56.15
2023-02-26T22:33:59.709Z,56.10
2023-02-26T22:36:27.672Z,56.06
2023-02-26T22:38:54.662Z,55.98
2023-02-26T22:41:21.492Z,56.29
2023-02-26T22:43:48.802Z,56.23
2023-02-26T22:46:17.070Z,56.34
2023-02-26T22:48:44.301Z,55.99
2023-02-26T22:51:10.915Z,56.23
2023-02-26T22:53:37.801Z,56.34
2023-02-26T22:56:04.794Z,56.47
2023-02-26T22:58:31.454Z,56.38
2023-02-26T23:01:00.121Z,56.29
2023-02-26T23:03:27.033Z,56.34
2023-02-26T23:05:53.711Z,56.40
2023-02-26T23:08:20.493Z,56.47
2023-02-26T23:10:47.143Z,56.50
2023-02-26T23:13:14.638Z,56.60
2023-02-26T23:15:41.469Z,56.54
2023-02-26T23:18:08.206Z,56.64
2023-02-26T23:20:34.999Z,56.68
2023-02-26T23:23:01.971Z,56.63
2023-02-26T23:25:28.874Z,56.70
2023-02-26T23:27:55.672Z,56.87
2023-02-26T23:30:22.822Z,57.01
2023-02-26T23:32:50.317Z,56.92
2023-02-26T23:35:17.401Z,57.01
2023-02-26T23:37:44.196Z,56.84
2023-02-26T23:40:14.548Z,56.95
2023-02-26T23:42:42.328Z,57.06
2023-02-26T23:45:10.512Z,57.08
2023-02-26T23:47:38.030Z,57.21
2023-02-26T23:50:06.766Z,57.32
2023-02-26T23:52:34.407Z,57.05
2023-02-26T23:55:02.507Z,57.10
2023-02-26T23:57:29.658Z,57.34
2023-02-26T23:59:56.649Z,57.16
